KALB/ALB METAR and TAF weather

Enter ICAO airport designator
Station Type Date Time Source
KALB METAR 2018/07/20 13:51 UTC NOAA

KALB 201351Z VRB05KT 10SM FEW035 23/14 A3017 RMK AO2 SLP216 T02330139


Station Type Date Time Source
KALB Decoded METAR 2018/07/20 13:51 UTC NOAA

ALBANY INTERNATIONAL AIRPORT, NY, United States (KALB) 42-45N 73-48W
Jul 20, 2018 - 09:51 AM EDT / 2018.07.20 1351 UTC
Wind: Variable at 6 MPH (5 KT):0
Visibility: 10 mile(s):0
Sky conditions: mostly clear
Temperature: 73.9 F (23.3 C)
Dew Point: 57.0 F (13.9 C)
Relative Humidity: 55%
Pressure (altimeter): 30.17 in. Hg (1021 hPa)
ob: KALB 201351Z VRB05KT 10SM FEW035 23/14 A3017 RMK AO2 SLP216 T02330139
cycle: 14

Station Type Date Time Source
KALB TAF 2018/07/20 12:39 UTC NOAA

TAF KALB 201137Z 2012/2112 34004KT P6SM SKC
FM201300 16005KT P6SM SKC
FM210000 16003KT P6SM SCT250


Example: see airport list